Roaming Rock Shores, Ohio
Current Conditions -  °F | °C
As of 11:53 AM on Thursday 30 Oct 2014 (Local Time) from KHZY Reporting Station
Overcast Overcast  
Wind Chill:   Ceiling: 4300
Heat Index:   Visibility: 10mi
Dew Point:   Wind: 7mph
Humidity: 71%   Direction: 280°W
Pressure: 30.11"   Gusts: NA
Location:  41.6051°N, 80.867°W
Report Text: KHZY 301553Z AUTO 28006KT 10SM OVC043 09/04 A3011 RMK AO2 SLP200 T00890039
Loading
Personal Weather Stations






























Interactive Weather Map
Tropical Storm Tracking
New forecast layout! Learn more

10-Day Weather Forecast

Advertisements
Track Severe Weather on mobile